CMA CGM Aristote — MRPN4 — position and weather

sailwx.info

Track history (hours):
 
Tides and Currents Weather Stations Pressure Air Temp Water Temp Dewpoint Dewpoint Depression Visibility Wind Speed Wind Dir Waves Ship Positions

CMA CGM Aristote

Last reported at 2016-May-28 17:34 UTC. Time now 2016-May-28 19:42 UTC.
Position N 48°57' W 005°08'.

Length 170 m; draft 6.7 m.

Type: Ship (hazmat cat A). MMSI: 235054581.

Date/timePositionNaut miles runAvg speedWind from/ knotsBaromVisibWave heightAir tempDewpointWater temp
2016-May-28 17:34N 48°57' W 005°08'1919.5
2016-May-28 16:33N 48°47' W 005°33'1918.9
2016-May-28 15:33N 48°32' W 005°49'1919.1
2016-May-28 14:34N 48°14' W 006°02'58218.8
2016-May-27 07:32N 38°56' W 009°51'1919.6
2016-May-27 06:33N 38°37' W 009°50'2019.6
2016-May-27 05:33N 38°17' W 009°48'2319.4
2016-May-27 04:21N 37°54' W 009°48'  
2016-May-23 20:28N 30°25' W 009°41'0 0.1
2016-May-23 19:31N 30°25' W 009°41'0 0.0
2016-May-23 16:19N 30°24' W 009°41'0 0.0
2016-May-23 15:19N 30°24' W 009°41'0 0.0
2016-May-23 12:05N 30°24' W 009°41'0 0.0
2016-May-22 18:25N 30°25' W 009°41'0 0.0
2016-May-22 17:33N 30°25' W 009°41'26 2.9
2016-May-22 08:33N 30°44' W 009°60'1311.7
2016-May-22 07:27N 30°57' W 010°00'1313.2
2016-May-22 06:29N 31°10' W 010°00'1414.6
2016-May-22 05:30N 31°24' W 010°00'1414.4
2016-May-22 04:33N 31°38' W 010°00'1414.4
2016-May-22 03:33N 31°52' W 010°00'4613.5
2016-May-22 00:11N 32°37' W 009°52'5314.3
2016-May-21 20:28N 33°11' W 009°02'1414.7
2016-May-21 19:31N 33°19' W 008°49'1414.3
2016-May-21 18:34N 33°25' W 008°34'212 6.6
2016-May-20 10:19N 35°57' W 005°35'5 0.9
2016-May-20 04:18N 35°54' W 005°29'0 0.0
2016-May-20 02:33N 35°54' W 005°29'22313.6
2016-May-19 10:07N 37°22' W 009°44'1119.7
2016-May-19 09:33N 37°33' W 009°47'2019.6
2016-May-19 08:33N 37°53' W 009°52'2019.7
2016-May-19 07:33N 38°12' W 009°57'2019.8
2016-May-19 06:33N 38°31' W 010°03'2019.6
2016-May-19 05:33N 38°50' W 010°06'2020.1
2016-May-19 04:33N 39°11' W 010°05'  
Track history (hours):
 
Tides and Currents Weather Stations Pressure Air Temp Water Temp Dewpoint Dewpoint Depression Visibility Wind Speed Wind Dir Waves Ship Positions

CMA CGM Aristote

Last reported at 2016-May-28 17:34 UTC. Time now 2016-May-28 19:42 UTC.
Position N 48°57' W 005°08'.

Length 170 m; draft 6.7 m.

Type: Ship (hazmat cat A). MMSI: 235054581.

Date/timePositionNaut miles runAvg speedWind from/ knotsBaromVisibWave heightAir tempDewpointWater temp
2016-May-28 17:34N 48°57' W 005°08'1919.5
2016-May-28 16:33N 48°47' W 005°33'1918.9
2016-May-28 15:33N 48°32' W 005°49'1919.1
2016-May-28 14:34N 48°14' W 006°02'58218.8
2016-May-27 07:32N 38°56' W 009°51'1919.6
2016-May-27 06:33N 38°37' W 009°50'2019.6
2016-May-27 05:33N 38°17' W 009°48'2319.4
2016-May-27 04:21N 37°54' W 009°48'  
2016-May-23 20:28N 30°25' W 009°41'0 0.1
2016-May-23 19:31N 30°25' W 009°41'0 0.0
2016-May-23 16:19N 30°24' W 009°41'0 0.0
2016-May-23 15:19N 30°24' W 009°41'0 0.0
2016-May-23 12:05N 30°24' W 009°41'0 0.0
2016-May-22 18:25N 30°25' W 009°41'0 0.0
2016-May-22 17:33N 30°25' W 009°41'26 2.9
2016-May-22 08:33N 30°44' W 009°60'1311.7
2016-May-22 07:27N 30°57' W 010°00'1313.2
2016-May-22 06:29N 31°10' W 010°00'1414.6
2016-May-22 05:30N 31°24' W 010°00'1414.4
2016-May-22 04:33N 31°38' W 010°00'1414.4
2016-May-22 03:33N 31°52' W 010°00'4613.5
2016-May-22 00:11N 32°37' W 009°52'5314.3
2016-May-21 20:28N 33°11' W 009°02'1414.7
2016-May-21 19:31N 33°19' W 008°49'1414.3
2016-May-21 18:34N 33°25' W 008°34'212 6.6
2016-May-20 10:19N 35°57' W 005°35'5 0.9
2016-May-20 04:18N 35°54' W 005°29'0 0.0
2016-May-20 02:33N 35°54' W 005°29'22313.6
2016-May-19 10:07N 37°22' W 009°44'1119.7
2016-May-19 09:33N 37°33' W 009°47'2019.6
2016-May-19 08:33N 37°53' W 009°52'2019.7
2016-May-19 07:33N 38°12' W 009°57'2019.8
2016-May-19 06:33N 38°31' W 010°03'2019.6
2016-May-19 05:33N 38°50' W 010°06'2020.1
2016-May-19 04:33N 39°11' W 010°05'  

Dump ship's entire track history